createdAt,value
2022-11-25T00:02:09.064Z,100709.28
2022-11-25T00:07:11.245Z,100718.03
2022-11-25T00:12:11.831Z,100715.19
2022-11-25T00:17:10.405Z,100719.28
2022-11-25T00:22:07.753Z,100716.41
2022-11-25T00:27:10.301Z,100718.19
2022-11-25T00:32:10.627Z,100722.44
2022-11-25T00:37:09.712Z,100724.06
2022-11-25T00:42:32.745Z,100730.94
2022-11-25T00:47:32.863Z,100728.59
2022-11-25T00:52:37.208Z,100732.38
2022-11-25T00:57:36.019Z,100739.09
2022-11-25T01:02:37.195Z,100736.78
2022-11-25T01:07:44.118Z,100735.69
2022-11-25T01:12:46.249Z,100746.34
2022-11-25T01:17:47.842Z,100749.34
2022-11-25T01:22:45.491Z,100751.41
2022-11-25T01:27:43.992Z,100758.22
2022-11-25T01:32:42.755Z,100755.63
2022-11-25T01:37:42.743Z,100762.59
2022-11-25T01:42:44.200Z,100749.47
2022-11-25T01:47:43.108Z,100744.28
2022-11-25T01:52:43.487Z,100746.50
2022-11-25T01:57:50.075Z,100750.84
2022-11-25T02:02:51.292Z,100752.44
2022-11-25T02:07:49.493Z,100751.66
2022-11-25T02:12:51.779Z,100753.03
2022-11-25T02:17:50.791Z,100754.81
2022-11-25T02:23:08.340Z,100757.25
2022-11-25T02:28:08.430Z,100767.47
2022-11-25T02:33:09.853Z,100767.22
2022-11-25T02:38:23.711Z,100768.03
2022-11-25T02:43:27.051Z,100770.22
2022-11-25T02:48:52.851Z,100781.41
2022-11-25T02:53:51.660Z,100784.44
2022-11-25T02:58:54.500Z,100787.56
2022-11-25T03:03:52.772Z,100788.28
2022-11-25T03:08:51.160Z,100797.69
2022-11-25T03:13:51.799Z,100793.19
2022-11-25T03:18:56.960Z,100804.41
2022-11-25T03:23:58.859Z,100812.28
2022-11-25T03:28:58.368Z,100803.31
2022-11-25T03:34:00.327Z,100821.47
2022-11-25T03:39:02.984Z,100827.47
2022-11-25T03:44:32.076Z,100811.63
2022-11-25T03:49:31.360Z,100830.34
2022-11-25T03:54:30.551Z,100825.84
2022-11-25T03:59:55.705Z,100832.78
2022-11-25T04:04:55.618Z,100830.09
2022-11-25T04:09:56.488Z,100831.97
2022-11-25T04:14:59.487Z,100838.66
2022-11-25T04:19:58.254Z,100855.47
2022-11-25T04:24:57.517Z,100856.69
2022-11-25T04:29:59.118Z,100869.38
2022-11-25T04:34:58.041Z,100866.53
2022-11-25T04:39:57.836Z,100876.25
2022-11-25T04:45:20.905Z,100878.72
2022-11-25T04:50:19.536Z,100886.63
2022-11-25T04:55:31.559Z,100896.03
2022-11-25T05:00:38.041Z,100891.69
2022-11-25T05:05:39.614Z,100894.28
2022-11-25T05:10:40.066Z,100903.00
2022-11-25T05:15:40.270Z,100912.13
2022-11-25T05:20:42.133Z,100929.94
2022-11-25T05:25:40.223Z,100935.56
2022-11-25T05:30:57.137Z,100946.06
2022-11-25T05:36:02.752Z,100953.28
2022-11-25T05:41:21.920Z,100957.09
2022-11-25T05:46:23.568Z,100970.06
2022-11-25T05:51:26.749Z,100978.16
2022-11-25T05:56:28.278Z,100985.81
2022-11-25T06:02:00.715Z,100991.16
2022-11-25T06:07:00.488Z,101007.63
2022-11-25T06:12:01.960Z,101011.94
2022-11-25T06:17:05.913Z,101024.16
2022-11-25T06:22:08.980Z,101026.41
2022-11-25T06:27:06.578Z,101031.47
2022-11-25T06:32:07.944Z,101039.69
2022-11-25T06:37:14.436Z,101041.53
2022-11-25T06:42:14.272Z,101039.94
2022-11-25T06:47:12.599Z,101040.78
2022-11-25T06:52:14.039Z,101035.19
2022-11-25T06:57:13.224Z,101054.69
2022-11-25T07:02:15.265Z,101055.63
2022-11-25T07:07:16.536Z,101059.25
2022-11-25T07:12:15.856Z,101070.94
2022-11-25T07:17:15.727Z,101074.44
2022-11-25T07:22:28.440Z,101086.09
2022-11-25T07:27:26.046Z,101091.78
2022-11-25T07:32:24.638Z,101087.06
2022-11-25T07:37:22.331Z,101095.25
2022-11-25T07:42:24.130Z,101105.81
2022-11-25T07:47:22.412Z,101116.59
2022-11-25T07:52:21.920Z,101114.63
2022-11-25T07:57:21.652Z,101116.66
2022-11-25T08:02:20.235Z,101110.88
2022-11-25T08:07:22.772Z,101128.13
2022-11-25T08:12:23.307Z,101131.41
2022-11-25T08:17:22.197Z,101139.88
2022-11-25T08:22:20.467Z,101144.56
2022-11-25T08:27:33.167Z,101149.59
2022-11-25T08:32:34.493Z,101154.88
2022-11-25T08:37:31.904Z,101165.66
2022-11-25T08:42:30.656Z,101166.00
2022-11-25T08:47:30.030Z,101166.81
2022-11-25T08:52:32.076Z,101166.56
2022-11-25T08:57:29.549Z,101170.28
2022-11-25T09:02:37.371Z,101167.69
2022-11-25T09:07:37.756Z,101168.38
2022-11-25T09:12:40.902Z,101165.59
2022-11-25T09:17:43.204Z,101162.44
2022-11-25T09:22:42.409Z,101170.50
2022-11-25T09:27:39.954Z,101168.31
2022-11-25T09:32:39.573Z,101172.94
2022-11-25T09:37:51.316Z,101174.97
2022-11-25T09:43:34.280Z,101181.19
2022-11-25T09:48:35.963Z,101180.94
2022-11-25T09:53:44.080Z,101182.09
2022-11-25T09:59:02.318Z,101171.63
2022-11-25T10:04:04.652Z,101169.81
2022-11-25T10:09:14.645Z,101172.03
2022-11-25T10:14:16.579Z,101163.75
2022-11-25T10:19:50.723Z,101171.00
2022-11-25T10:24:50.160Z,101170.91
2022-11-25T10:29:52.224Z,101168.31
2022-11-25T10:34:59.947Z,101168.41
2022-11-25T10:40:00.814Z,101167.44
2022-11-25T10:45:22.393Z,101168.38
2022-11-25T10:50:45.601Z,101174.59
2022-11-25T10:56:04.245Z,101174.69
2022-11-25T11:01:05.901Z,101169.09
2022-11-25T11:06:04.496Z,101173.59
2022-11-25T11:11:33.898Z,101160.19
2022-11-25T11:16:35.568Z,101169.28
2022-11-25T11:21:52.073Z,101168.84
2022-11-25T11:27:08.100Z,101176.84
2022-11-25T11:32:18.481Z,101166.53
2022-11-25T11:38:12.894Z,101169.50
2022-11-25T11:43:26.988Z,101170.94
2022-11-25T11:49:30.737Z,101168.25
2022-11-25T11:54:19.941Z,101175.84
2022-11-25T12:05:24.891Z,101176.09
2022-11-25T12:10:33.620Z,101179.28
2022-11-25T12:15:42.119Z,101175.19
2022-11-25T12:20:46.638Z,101182.09
2022-11-25T12:25:45.854Z,101181.69
2022-11-25T12:30:50.512Z,101184.28
2022-11-25T12:36:04.248Z,101182.34
2022-11-25T12:41:02.918Z,101188.69
2022-11-25T12:46:12.820Z,101181.44
2022-11-25T12:51:14.520Z,101188.44
2022-11-25T12:56:15.290Z,101187.69
2022-11-25T13:01:41.281Z,101185.69
2022-11-25T13:06:47.818Z,101183.84
2022-11-25T13:12:06.159Z,101186.13
2022-11-25T13:17:05.379Z,101193.38
2022-11-25T13:22:04.560Z,101193.91
2022-11-25T13:27:05.762Z,101196.94
2022-11-25T13:32:07.762Z,101203.34
2022-11-25T13:37:34.948Z,101206.41
2022-11-25T13:42:36.550Z,101220.63
2022-11-25T13:47:38.933Z,101224.13
2022-11-25T13:52:41.039Z,101222.44
2022-11-25T13:57:40.480Z,101227.59
2022-11-25T14:02:45.638Z,101240.16
2022-11-25T14:07:46.554Z,101234.03
2022-11-25T14:12:48.755Z,101242.81
2022-11-25T14:17:56.425Z,101241.03
2022-11-25T14:22:54.321Z,101234.47
2022-11-25T14:28:00.879Z,101242.88
2022-11-25T14:33:07.739Z,101245.41
2022-11-25T14:38:07.276Z,101245.28
2022-11-25T14:43:09.828Z,101248.72
2022-11-25T14:48:35.982Z,101256.13
2022-11-25T14:53:45.911Z,101251.47
2022-11-25T14:58:51.019Z,101260.69
2022-11-25T15:03:54.599Z,101265.78
2022-11-25T15:08:56.249Z,101269.34
2022-11-25T15:14:03.870Z,101262.03
2022-11-25T15:19:04.531Z,101268.50
2022-11-25T15:24:07.719Z,101270.28
2022-11-25T15:29:29.108Z,101265.47
2022-11-25T15:34:32.101Z,101269.88
2022-11-25T15:39:34.047Z,101278.31
2022-11-25T15:44:32.845Z,101287.63
2022-11-25T15:49:30.376Z,101286.91
2022-11-25T15:54:31.576Z,101288.13
2022-11-25T15:59:48.606Z,101295.88
2022-11-25T16:04:51.579Z,101302.75
2022-11-25T16:09:51.600Z,101303.31
2022-11-25T16:14:51.031Z,101306.91
2022-11-25T16:20:01.020Z,101314.00
2022-11-25T16:25:06.062Z,101321.94
2022-11-25T16:30:06.923Z,101317.75
2022-11-25T16:35:13.099Z,101333.47
2022-11-25T16:40:17.547Z,101336.16
2022-11-25T16:45:25.958Z,101333.88
2022-11-25T16:50:25.563Z,101345.34
2022-11-25T16:55:24.433Z,101344.81
2022-11-25T17:00:25.552Z,101354.53
2022-11-25T17:05:24.857Z,101359.09
2022-11-25T17:10:24.896Z,101361.59
2022-11-25T17:15:29.507Z,101368.81
2022-11-25T17:20:39.404Z,101365.06
2022-11-25T17:25:40.818Z,101365.56
2022-11-25T17:30:42.035Z,101366.13
2022-11-25T17:35:40.030Z,101367.19
2022-11-25T17:40:41.493Z,101370.13
2022-11-25T17:45:43.381Z,101382.16
2022-11-25T17:50:48.171Z,101377.94
2022-11-25T17:55:46.306Z,101393.97
2022-11-25T18:00:46.413Z,101396.25
2022-11-25T18:05:44.650Z,101396.97
2022-11-25T18:10:44.016Z,101394.69
2022-11-25T18:15:44.269Z,101409.59
2022-11-25T18:20:42.739Z,101415.91
2022-11-25T18:25:40.785Z,101413.72
2022-11-25T18:30:39.996Z,101419.97
2022-11-25T18:35:37.802Z,101418.22
2022-11-25T18:40:36.804Z,101422.03
2022-11-25T18:45:35.149Z,101432.13
2022-11-25T18:50:34.145Z,101421.84
2022-11-25T18:55:33.468Z,101438.41
2022-11-25T19:00:34.471Z,101436.53
2022-11-25T19:05:36.968Z,101456.09
2022-11-25T19:10:36.601Z,101446.91
2022-11-25T19:15:37.883Z,101459.31
2022-11-25T19:20:36.908Z,101464.75
2022-11-25T19:25:39.333Z,101462.66
2022-11-25T19:30:36.547Z,101464.44
2022-11-25T19:35:36.391Z,101469.78
2022-11-25T19:40:39.312Z,101468.94
2022-11-25T19:45:43.867Z,101473.41
2022-11-25T19:50:44.907Z,101493.22
2022-11-25T19:55:49.136Z,101494.19
2022-11-25T20:00:50.316Z,101491.22
2022-11-25T20:05:49.776Z,101495.69
2022-11-25T20:10:48.082Z,101503.25
2022-11-25T20:15:46.526Z,101506.31
2022-11-25T20:20:44.730Z,101509.09
2022-11-25T20:25:46.984Z,101517.84
2022-11-25T20:30:46.191Z,101518.91
2022-11-25T20:35:53.322Z,101518.66
2022-11-25T20:40:54.372Z,101535.22
2022-11-25T20:45:53.437Z,101530.69
2022-11-25T20:50:51.831Z,101524.00
2022-11-25T20:55:51.434Z,101524.34
2022-11-25T21:00:52.796Z,101532.84
2022-11-25T21:05:55.660Z,101533.06
2022-11-25T21:10:55.769Z,101536.72
2022-11-25T21:15:54.807Z,101546.72
2022-11-25T21:21:01.317Z,101555.50
2022-11-25T21:26:06.014Z,101556.59
2022-11-25T21:31:09.792Z,101567.31
2022-11-25T21:36:11.616Z,101574.25
2022-11-25T21:41:10.408Z,101579.88
2022-11-25T21:46:12.751Z,101584.63
2022-11-25T21:51:13.195Z,101578.16
2022-11-25T21:56:27.019Z,101582.72
2022-11-25T22:01:26.059Z,101582.00
2022-11-25T22:06:25.172Z,101591.06
2022-11-25T22:11:35.521Z,101597.59
2022-11-25T22:16:38.792Z,101602.91
2022-11-25T22:21:38.003Z,101601.34
2022-11-25T22:26:36.604Z,101610.81
2022-11-25T22:31:35.926Z,101624.41
2022-11-25T22:36:34.932Z,101618.94
2022-11-25T22:41:34.104Z,101610.13
2022-11-25T22:46:34.958Z,101610.13
2022-11-25T22:51:34.375Z,101626.28
2022-11-25T22:56:35.026Z,101629.59
2022-11-25T23:01:35.166Z,101636.22
2022-11-25T23:06:34.993Z,101643.94
2022-11-25T23:11:39.824Z,101648.81
2022-11-25T23:16:41.433Z,101655.84
2022-11-25T23:21:41.457Z,101655.53
2022-11-25T23:26:41.085Z,101655.13
2022-11-25T23:31:39.450Z,101661.78
2022-11-25T23:36:49.726Z,101658.84
2022-11-25T23:41:47.346Z,101665.34
2022-11-25T23:46:46.030Z,101684.59
2022-11-25T23:51:44.802Z,101703.09
2022-11-25T23:56:43.502Z,101701.78
